Главная страница
METAR-TAF:

METAR-TAF

Аэропорты :

Sandane, Норвегия

широта: 61-50N, долгота: 006-07E, высота над уровнем моря: 6 м

Текущие метеонаблюдения

Эта сводка был подготовлена 15 часа и 3 минут назад, в 15:50 UTC
Ветер 3 Узел переменных направлений
Температура -2°C
Влажность 100%
Давление 1009 hPa
Видимость: 0300 м
переохлажденный туман

METAR: ENSD 161550Z VRB03KT 0300 FZFG VV001 M02/M02 Q1009 RMK WIND 1138FT VRB01KT

Время: 07:53 (06:53 UTC)


TAF: отсутствует

Метеонаблюдения и прогнозы для более 4000 аэропортов (сводки METAR и TAF).

Имеющиеся станции представлены на карте желтыми и красными точками.

Чтобы увидеть название станции, наведите на нее мышь.

Затем щелкните, чтобы увидеть метеонаблюдения и метеопрогнозы.

Управление картой: чтобы увеличить масштаб, щелкните зеленые кнопки с черным крестиком; чтобы уменьшить масштаб, щелкните зеленую кнопку с тире; для просмотра соседних карт щелкайте зеленые стрелки.


METAR-TAF: